Hornepayne, Canada
Current Conditions -  °F | °C
As of 8:00 PM on Tuesday 21 Oct 2014 (Local Time) from CYXZ Reporting Station
Clear Clear  
Wind Chill: -1°   Ceiling: Unl
Heat Index:   Visibility: 15mi
Dew Point: -3°   Wind: 5mph
Humidity: 75%   Direction: 50°NE
Pressure: 30.31"   Gusts: NA
Location:  49.22°N, 84.78°W
Report Text: CYXZ 220000Z 05004KT 15SM SKC 01/M03 A3031 RMK LAST OBS/NEXT 221100UTC SLP281
Loading
Personal Weather Stations






























Interactive Weather Map
Tropical Storm Tracking
New forecast layout! Learn more

10-Day Weather Forecast

Advertisements
Track Severe Weather on mobile